createdAt,value
2018-03-29T00:00:11.806Z,16.35
2018-03-29T00:02:38.059Z,16.98
2018-03-29T00:05:04.312Z,17.85
2018-03-29T00:07:31.378Z,15.65
2018-03-29T00:09:58.355Z,21.92
2018-03-29T00:12:24.632Z,14.20
2018-03-29T00:14:50.864Z,15.32
2018-03-29T00:17:17.098Z,14.45
2018-03-29T00:19:44.127Z,16.33
2018-03-29T00:22:10.368Z,16.10
2018-03-29T00:24:36.628Z,19.50
2018-03-29T00:27:02.905Z,19.05
2018-03-29T00:29:29.175Z,18.52
2018-03-29T00:31:56.151Z,20.58
2018-03-29T00:34:22.421Z,17.42
2018-03-29T00:36:48.695Z,16.55
2018-03-29T00:39:14.945Z,17.80
2018-03-29T00:41:41.238Z,18.27
2018-03-29T00:44:08.238Z,18.80
2018-03-29T00:46:34.527Z,25.52
2018-03-29T00:49:00.771Z,19.17
2018-03-29T00:51:27.056Z,18.35
2018-03-29T00:53:53.292Z,15.57
2018-03-29T00:56:20.316Z,15.52
2018-03-29T00:58:46.559Z,17.35
2018-03-29T01:01:12.837Z,18.90
2018-03-29T01:03:39.130Z,20.23
2018-03-29T01:06:06.107Z,21.92
2018-03-29T01:08:32.393Z,18.77
2018-03-29T01:10:58.641Z,20.42
2018-03-29T01:13:25.683Z,23.12
2018-03-29T01:15:52.685Z,18.30
2018-03-29T01:18:18.967Z,19.08
2018-03-29T01:20:45.962Z,19.70
2018-03-29T01:23:12.223Z,19.17
2018-03-29T01:25:38.448Z,18.85
2018-03-29T01:28:04.731Z,19.05
2018-03-29T01:30:30.984Z,18.77
2018-03-29T01:32:57.235Z,22.33
2018-03-29T01:35:23.499Z,18.08
2018-03-29T01:37:49.759Z,19.10
2018-03-29T01:40:16.025Z,22.52
2018-03-29T01:42:42.271Z,17.48
2018-03-29T01:45:08.571Z,18.40
2018-03-29T01:47:34.836Z,20.42
2018-03-29T01:50:01.106Z,18.42
2018-03-29T01:52:27.349Z,18.10
2018-03-29T01:54:53.613Z,19.02
2018-03-29T01:57:19.846Z,21.98
2018-03-29T01:59:46.837Z,19.30
2018-03-29T02:02:13.097Z,20.20
2018-03-29T02:04:39.333Z,21.55
2018-03-29T02:07:05.585Z,21.70
2018-03-29T02:09:32.564Z,19.50
2018-03-29T02:11:58.812Z,19.73
2018-03-29T02:14:25.035Z,20.73
2018-03-29T02:16:51.307Z,19.10
2018-03-29T02:19:17.543Z,21.33
2018-03-29T02:21:44.598Z,19.85
2018-03-29T02:24:11.595Z,19.17
2018-03-29T02:26:37.855Z,18.42
2018-03-29T02:29:04.103Z,19.70
2018-03-29T02:31:31.176Z,17.33
2018-03-29T02:33:58.171Z,20.27
2018-03-29T02:36:24.415Z,17.52
2018-03-29T02:38:51.437Z,14.98
2018-03-29T02:41:17.726Z,17.23
2018-03-29T02:43:43.984Z,16.23
2018-03-29T02:46:10.260Z,15.90
2018-03-29T02:48:37.247Z,17.05
2018-03-29T02:51:03.479Z,15.45
2018-03-29T02:53:29.737Z,16.75
2018-03-29T02:55:55.982Z,16.05
2018-03-29T02:58:22.959Z,18.92
2018-03-29T03:00:49.264Z,16.30
2018-03-29T03:03:16.239Z,19.12
2018-03-29T03:05:42.498Z,17.70
2018-03-29T03:08:08.772Z,14.23
2018-03-29T03:10:35.788Z,17.70
2018-03-29T03:13:02.051Z,16.73
2018-03-29T03:15:29.070Z,16.08
2018-03-29T03:17:55.313Z,19.15
2018-03-29T03:20:21.556Z,18.45
2018-03-29T03:22:48.595Z,19.35
2018-03-29T03:25:15.586Z,18.58
2018-03-29T03:27:41.862Z,18.73
2018-03-29T03:30:08.144Z,19.70
2018-03-29T03:32:34.435Z,22.13
2018-03-29T03:35:01.427Z,18.23
2018-03-29T03:37:27.713Z,17.70
2018-03-29T03:39:54.040Z,15.45
2018-03-29T03:42:21.067Z,19.20
2018-03-29T03:44:47.377Z,24.55
2018-03-29T03:47:13.648Z,18.90
2018-03-29T03:49:40.664Z,14.98
2018-03-29T03:52:06.942Z,25.77
2018-03-29T03:54:33.188Z,25.02
2018-03-29T03:56:59.506Z,17.20
2018-03-29T03:59:25.890Z,21.15
2018-03-29T04:01:52.210Z,20.98
2018-03-29T04:04:18.450Z,19.83
2018-03-29T04:06:44.728Z,22.50
2018-03-29T04:09:11.903Z,22.42
2018-03-29T04:11:38.187Z,28.77
2018-03-29T04:14:04.488Z,23.23
2018-03-29T04:16:30.740Z,49.45
2018-03-29T04:18:57.272Z,17.48
2018-03-29T04:21:24.300Z,22.17
2018-03-29T04:23:50.559Z,19.30
2018-03-29T04:26:16.801Z,24.40
2018-03-29T04:28:43.835Z,18.70
2018-03-29T04:31:10.832Z,24.75
2018-03-29T04:33:37.089Z,23.98
2018-03-29T04:36:03.368Z,21.33
2018-03-29T04:38:29.595Z,19.87
2018-03-29T04:40:55.828Z,23.27
2018-03-29T04:43:22.117Z,24.65
2018-03-29T04:45:48.359Z,21.75
2018-03-29T04:48:15.367Z,24.15
2018-03-29T04:50:41.621Z,19.95
2018-03-29T04:53:07.859Z,18.65
2018-03-29T04:55:34.166Z,19.85
2018-03-29T04:58:00.406Z,18.98
2018-03-29T05:00:26.647Z,20.10
2018-03-29T05:02:52.872Z,19.45
2018-03-29T05:05:19.115Z,20.45
2018-03-29T05:07:46.082Z,25.42
2018-03-29T05:10:12.365Z,23.38
2018-03-29T05:12:38.631Z,30.77
2018-03-29T05:15:04.893Z,31.37
2018-03-29T05:17:31.145Z,25.80
2018-03-29T05:19:57.407Z,23.77
2018-03-29T05:22:24.420Z,26.20
2018-03-29T05:24:50.675Z,27.98
2018-03-29T05:27:19.723Z,31.42
2018-03-29T05:29:46.009Z,22.70
2018-03-29T05:32:13.057Z,34.17
2018-03-29T05:34:39.344Z,23.92
2018-03-29T05:37:05.602Z,26.05
2018-03-29T05:39:32.595Z,25.33
2018-03-29T05:41:58.904Z,24.55
2018-03-29T05:44:25.192Z,22.77
2018-03-29T05:46:51.502Z,23.60
2018-03-29T05:49:17.745Z,24.98
2018-03-29T05:51:43.992Z,27.87
2018-03-29T05:54:10.235Z,29.30
2018-03-29T05:56:37.250Z,20.70
2018-03-29T05:59:03.498Z,26.37
2018-03-29T06:01:29.747Z,22.98
2018-03-29T06:03:56.758Z,24.37
2018-03-29T06:06:23.015Z,25.58
2018-03-29T06:08:50.035Z,27.75
2018-03-29T06:11:16.303Z,28.17
2018-03-29T06:13:43.332Z,24.00
2018-03-29T06:16:09.608Z,22.58
2018-03-29T06:18:35.927Z,22.55
2018-03-29T06:21:02.204Z,22.98
2018-03-29T06:23:28.471Z,24.77
2018-03-29T06:25:54.759Z,23.92
2018-03-29T06:28:21.089Z,21.50
2018-03-29T06:30:47.361Z,22.60
2018-03-29T06:33:14.395Z,22.00
2018-03-29T06:35:40.659Z,20.75
2018-03-29T06:38:06.945Z,26.30
2018-03-29T06:40:33.215Z,22.52
2018-03-29T06:42:59.464Z,24.10
2018-03-29T06:45:25.730Z,23.87
2018-03-29T06:47:52.028Z,26.00
2018-03-29T06:50:18.272Z,27.05
2018-03-29T06:52:44.552Z,22.70
2018-03-29T06:55:10.846Z,29.98
2018-03-29T06:57:37.097Z,30.80
2018-03-29T07:00:04.127Z,30.33
2018-03-29T07:02:30.432Z,36.63
2018-03-29T07:04:56.705Z,28.30
2018-03-29T07:07:23.707Z,25.75
2018-03-29T07:09:49.980Z,31.77
2018-03-29T07:12:16.976Z,30.23
2018-03-29T07:14:43.219Z,29.77
2018-03-29T07:17:09.508Z,26.73
2018-03-29T07:19:36.487Z,26.20
2018-03-29T07:22:02.755Z,28.58
2018-03-29T07:24:29.016Z,27.05
2018-03-29T07:26:55.311Z,25.35
2018-03-29T07:29:22.351Z,25.92
2018-03-29T07:31:48.631Z,21.25
2018-03-29T07:34:14.971Z,26.30
2018-03-29T07:36:41.299Z,19.50
2018-03-29T07:39:07.568Z,22.60
2018-03-29T07:41:33.834Z,19.10
2018-03-29T07:44:00.872Z,23.38
2018-03-29T07:46:27.890Z,24.27
2018-03-29T07:48:54.131Z,24.50
2018-03-29T07:51:20.373Z,23.27
2018-03-29T07:53:47.392Z,26.80
2018-03-29T07:56:13.651Z,22.70
2018-03-29T07:58:40.647Z,25.37
2018-03-29T08:01:06.899Z,24.83
2018-03-29T08:03:33.903Z,29.80
2018-03-29T08:06:00.197Z,25.00
2018-03-29T08:08:27.232Z,22.58
2018-03-29T08:10:53.472Z,23.60
2018-03-29T08:13:20.504Z,30.42
2018-03-29T08:15:46.812Z,23.08
2018-03-29T08:18:13.058Z,24.85
2018-03-29T08:20:39.323Z,36.35
2018-03-29T08:23:06.331Z,31.25
2018-03-29T08:25:32.589Z,26.77
2018-03-29T08:27:59.575Z,26.25
2018-03-29T08:30:25.862Z,24.63
2018-03-29T08:32:52.888Z,36.38
2018-03-29T08:35:19.147Z,30.70
2018-03-29T08:37:46.168Z,28.77
2018-03-29T08:40:12.788Z,24.67
2018-03-29T08:42:39.066Z,16.27
2018-03-29T08:45:06.110Z,20.30
2018-03-29T08:47:32.423Z,15.73
2018-03-29T08:49:59.430Z,14.35
2018-03-29T08:52:25.721Z,11.15
2018-03-29T08:54:52.733Z,12.02
2018-03-29T08:57:18.987Z,11.30
2018-03-29T08:59:46.004Z,10.73
2018-03-29T09:02:12.259Z,7.32
2018-03-29T09:04:38.626Z,6.50
2018-03-29T09:07:04.903Z,10.50
2018-03-29T09:09:31.179Z,7.28
2018-03-29T09:11:57.479Z,8.30
2018-03-29T09:14:24.501Z,10.15
2018-03-29T09:16:50.769Z,7.25
2018-03-29T09:19:17.759Z,5.22
2018-03-29T09:21:44.382Z,7.57
2018-03-29T09:24:10.620Z,7.18
2018-03-29T09:26:36.891Z,7.75
2018-03-29T09:29:03.172Z,10.88
2018-03-29T09:31:29.450Z,10.32
2018-03-29T09:33:56.255Z,9.13
2018-03-29T09:36:22.573Z,9.32
2018-03-29T09:38:48.883Z,8.63
2018-03-29T09:41:15.886Z,8.93
2018-03-29T09:43:42.141Z,11.80
2018-03-29T09:46:09.162Z,10.43
2018-03-29T09:48:35.447Z,10.90
2018-03-29T09:51:01.732Z,8.90
2018-03-29T09:53:28.755Z,8.32
2018-03-29T09:55:55.014Z,7.80
2018-03-29T09:58:21.295Z,7.47
2018-03-29T10:00:47.604Z,8.70
2018-03-29T10:03:14.687Z,8.30
2018-03-29T10:05:40.979Z,9.43
2018-03-29T10:08:07.997Z,5.40
2018-03-29T10:10:34.307Z,9.30
2018-03-29T10:13:00.911Z,6.07
2018-03-29T10:15:27.193Z,6.87
2018-03-29T10:17:53.629Z,5.80
2018-03-29T10:20:19.895Z,6.90
2018-03-29T10:22:46.875Z,6.37
2018-03-29T10:25:13.147Z,6.30
2018-03-29T10:27:39.392Z,7.00
2018-03-29T10:30:06.413Z,6.30
2018-03-29T10:32:32.705Z,9.43
2018-03-29T10:34:59.025Z,7.50
2018-03-29T10:37:25.298Z,8.40
2018-03-29T10:39:51.567Z,7.70
2018-03-29T10:42:17.885Z,8.50
2018-03-29T10:44:44.901Z,11.43
2018-03-29T10:47:11.200Z,9.10
2018-03-29T10:49:37.455Z,8.88
2018-03-29T10:52:03.750Z,12.90
2018-03-29T10:54:30.026Z,7.00
2018-03-29T10:56:56.304Z,8.73
2018-03-29T10:59:22.632Z,6.67
2018-03-29T11:01:48.890Z,10.50
2018-03-29T11:04:15.200Z,6.03
2018-03-29T11:06:41.447Z,7.87
2018-03-29T11:09:07.751Z,7.37
2018-03-29T11:11:34.031Z,6.37
2018-03-29T11:14:00.299Z,5.82
2018-03-29T11:16:26.563Z,7.12
2018-03-29T11:18:52.852Z,7.57
2018-03-29T11:21:19.875Z,5.07
2018-03-29T11:23:46.135Z,5.70
2018-03-29T11:26:12.405Z,19.20
2018-03-29T11:28:38.675Z,16.70
2018-03-29T11:31:04.979Z,6.03
2018-03-29T11:33:31.272Z,12.27
2018-03-29T11:35:57.580Z,5.50
2018-03-29T11:38:23.835Z,5.07
2018-03-29T11:40:50.152Z,4.93
2018-03-29T11:43:16.450Z,5.40
2018-03-29T11:45:42.751Z,5.30
2018-03-29T11:48:09.819Z,4.33
2018-03-29T11:50:36.242Z,4.80
2018-03-29T11:53:02.536Z,7.43
2018-03-29T11:55:28.804Z,3.80
2018-03-29T11:57:55.115Z,4.47
2018-03-29T12:00:21.363Z,6.37
2018-03-29T12:02:47.631Z,4.50
2018-03-29T12:05:14.628Z,3.60
2018-03-29T12:07:40.891Z,3.80
2018-03-29T12:10:07.945Z,4.03
2018-03-29T12:12:34.973Z,4.00
2018-03-29T12:15:01.262Z,2.83
2018-03-29T12:17:27.524Z,2.30
2018-03-29T12:19:53.781Z,3.13
2018-03-29T12:22:20.835Z,3.23
2018-03-29T12:24:47.861Z,3.87
2018-03-29T12:27:14.115Z,3.43
2018-03-29T12:29:41.155Z,6.30
2018-03-29T12:32:08.163Z,3.10
2018-03-29T12:34:34.420Z,3.33
2018-03-29T12:37:00.684Z,4.13
2018-03-29T12:39:26.951Z,3.43
2018-03-29T12:41:53.203Z,5.93
2018-03-29T12:44:19.470Z,9.30
2018-03-29T12:46:45.765Z,5.70
2018-03-29T12:49:12.007Z,11.23
2018-03-29T12:51:39.026Z,4.30
2018-03-29T12:54:05.318Z,6.18
2018-03-29T12:56:44.055Z,4.40
2018-03-29T12:59:10.331Z,8.55
2018-03-29T13:01:37.370Z,3.30
2018-03-29T13:04:03.631Z,5.43
2018-03-29T13:06:31.261Z,5.68
2018-03-29T13:08:58.286Z,6.85
2018-03-29T13:11:24.606Z,3.63
2018-03-29T13:13:50.851Z,4.97
2018-03-29T13:16:17.168Z,3.97
2018-03-29T13:18:43.509Z,4.07
2018-03-29T13:21:09.792Z,6.67
2018-03-29T13:23:36.095Z,8.33
2018-03-29T13:26:02.384Z,8.93
2018-03-29T13:28:28.681Z,7.30
2018-03-29T13:30:55.009Z,15.17
2018-03-29T13:33:22.061Z,5.77
2018-03-29T13:35:48.343Z,6.13
2018-03-29T13:38:14.731Z,7.00
2018-03-29T13:40:41.000Z,6.60
2018-03-29T13:43:07.266Z,8.73
2018-03-29T13:45:34.293Z,8.77
2018-03-29T13:48:00.612Z,6.70
2018-03-29T13:50:26.922Z,8.33
2018-03-29T13:52:53.221Z,8.83
2018-03-29T13:55:19.494Z,4.80
2018-03-29T13:57:45.858Z,4.23
2018-03-29T14:00:12.183Z,6.13
2018-03-29T14:02:38.456Z,4.63
2018-03-29T14:05:04.745Z,6.90
2018-03-29T14:07:31.007Z,5.17
2018-03-29T14:09:57.266Z,5.30
2018-03-29T14:12:23.598Z,4.47
2018-03-29T14:14:50.004Z,6.90
2018-03-29T14:17:16.739Z,6.43
2018-03-29T14:19:42.997Z,4.37
2018-03-29T14:22:09.270Z,7.37
2018-03-29T14:24:36.300Z,4.50
2018-03-29T14:27:02.605Z,4.13
2018-03-29T14:29:28.880Z,11.07
2018-03-29T14:31:55.153Z,7.20
2018-03-29T14:34:21.498Z,7.10
2018-03-29T14:36:47.824Z,10.57
2018-03-29T14:39:14.091Z,10.00
2018-03-29T14:41:40.351Z,9.47
2018-03-29T14:44:06.677Z,5.50
2018-03-29T14:46:33.727Z,4.83
2018-03-29T14:49:00.012Z,5.83
2018-03-29T14:51:26.273Z,3.13
2018-03-29T14:53:53.274Z,6.27
2018-03-29T14:56:19.585Z,3.50
2018-03-29T14:58:45.888Z,4.07
2018-03-29T15:01:12.923Z,3.60
2018-03-29T15:03:39.943Z,10.03
2018-03-29T15:06:06.300Z,9.90
2018-03-29T15:08:32.585Z,5.83
2018-03-29T15:10:59.614Z,8.60
2018-03-29T15:13:25.861Z,5.80
2018-03-29T15:15:52.157Z,7.33
2018-03-29T15:18:18.464Z,5.97
2018-03-29T15:20:45.488Z,4.03
2018-03-29T15:23:11.746Z,5.57
2018-03-29T15:25:38.062Z,3.40
2018-03-29T15:28:04.447Z,4.43
2018-03-29T15:30:30.707Z,4.30
2018-03-29T15:32:57.763Z,5.63
2018-03-29T15:35:24.036Z,4.30
2018-03-29T15:37:51.063Z,3.07
2018-03-29T15:40:18.068Z,3.33
2018-03-29T15:42:44.338Z,4.30
2018-03-29T15:45:11.459Z,5.10
2018-03-29T15:47:37.751Z,73.57
2018-03-29T15:50:04.024Z,6.33
2018-03-29T15:52:30.351Z,4.70
2018-03-29T15:54:57.347Z,5.63
2018-03-29T15:57:23.704Z,5.00
2018-03-29T15:59:50.013Z,4.80
2018-03-29T16:02:16.432Z,6.40
2018-03-29T16:04:42.729Z,5.30
2018-03-29T16:07:09.301Z,3.30
2018-03-29T16:09:36.299Z,3.77
2018-03-29T16:12:02.661Z,3.67
2018-03-29T16:14:28.935Z,3.20
2018-03-29T16:16:55.179Z,6.67
2018-03-29T16:19:21.467Z,6.10
2018-03-29T16:21:47.739Z,4.83
2018-03-29T16:24:14.008Z,5.93
2018-03-29T16:26:40.256Z,5.80
2018-03-29T16:29:07.266Z,5.17
2018-03-29T16:31:33.541Z,10.63
2018-03-29T16:34:00.613Z,4.63
2018-03-29T16:36:26.911Z,6.00
2018-03-29T16:38:53.920Z,2.90
2018-03-29T16:41:20.915Z,4.23
2018-03-29T16:43:47.192Z,4.90
2018-03-29T16:46:14.291Z,3.23
2018-03-29T16:48:41.347Z,3.50
2018-03-29T16:51:07.615Z,8.77
2018-03-29T16:53:34.041Z,5.30
2018-03-29T16:56:00.327Z,6.70
2018-03-29T16:58:26.664Z,3.27
2018-03-29T17:00:53.086Z,4.50
2018-03-29T17:03:20.075Z,4.80
2018-03-29T17:05:46.343Z,7.35
2018-03-29T17:08:12.596Z,7.47
2018-03-29T17:10:39.623Z,7.12
2018-03-29T17:13:05.851Z,11.40
2018-03-29T17:15:32.115Z,14.73
2018-03-29T17:17:58.428Z,5.93
2018-03-29T17:20:25.487Z,7.25
2018-03-29T17:22:51.735Z,10.13
2018-03-29T17:25:17.998Z,4.55
2018-03-29T17:27:44.283Z,4.68
2018-03-29T17:30:10.531Z,12.15
2018-03-29T17:32:36.787Z,4.72
2018-03-29T17:35:03.115Z,7.15
2018-03-29T17:37:29.389Z,8.35
2018-03-29T17:39:56.395Z,7.07
2018-03-29T17:42:22.677Z,14.02
2018-03-29T17:44:48.933Z,5.80
2018-03-29T17:47:15.439Z,5.20
2018-03-29T17:49:41.680Z,5.05
2018-03-29T17:52:07.938Z,8.10
2018-03-29T17:54:34.238Z,4.35
2018-03-29T17:57:01.224Z,9.30
2018-03-29T17:59:27.467Z,6.55
2018-03-29T18:01:53.702Z,9.85
2018-03-29T18:04:19.959Z,6.03
2018-03-29T18:06:46.945Z,11.25
2018-03-29T18:09:13.267Z,8.07
2018-03-29T18:11:39.515Z,8.02
2018-03-29T18:14:05.768Z,8.02
2018-03-29T18:16:32.039Z,7.80
2018-03-29T18:18:58.314Z,13.13
2018-03-29T18:21:24.571Z,10.93
2018-03-29T18:23:51.599Z,7.20
2018-03-29T18:26:17.828Z,9.25
2018-03-29T18:28:44.168Z,10.05
2018-03-29T18:31:11.171Z,6.95
2018-03-29T18:33:37.468Z,9.52
2018-03-29T18:36:04.474Z,6.45
2018-03-29T18:38:30.723Z,7.93
2018-03-29T18:40:57.723Z,7.12
2018-03-29T18:43:23.957Z,5.85
2018-03-29T18:45:50.239Z,6.10
2018-03-29T18:48:17.232Z,6.93
2018-03-29T18:50:43.494Z,7.05
2018-03-29T18:53:10.491Z,9.27
2018-03-29T18:55:36.772Z,7.30
2018-03-29T18:58:03.019Z,5.18
2018-03-29T19:00:30.048Z,7.53
2018-03-29T19:02:56.306Z,9.05
2018-03-29T19:05:23.299Z,7.25
2018-03-29T19:07:49.575Z,6.25
2018-03-29T19:10:16.600Z,7.55
2018-03-29T19:12:43.597Z,4.85
2018-03-29T19:15:09.838Z,7.65
2018-03-29T19:17:36.096Z,6.25
2018-03-29T19:20:02.403Z,6.85
2018-03-29T19:22:28.712Z,11.18
2018-03-29T19:24:54.961Z,8.38
2018-03-29T19:27:21.207Z,6.28
2018-03-29T19:29:47.452Z,8.30
2018-03-29T19:32:13.711Z,7.37
2018-03-29T19:34:40.691Z,7.22
2018-03-29T19:37:06.958Z,6.65
2018-03-29T19:39:33.186Z,5.65
2018-03-29T19:41:59.458Z,6.80
2018-03-29T19:44:25.699Z,6.50
2018-03-29T19:46:51.947Z,6.78
2018-03-29T19:49:18.178Z,13.32
2018-03-29T19:51:44.755Z,6.80
2018-03-29T19:54:10.991Z,5.78
2018-03-29T19:56:37.996Z,6.57
2018-03-29T19:59:04.248Z,6.75
2018-03-29T20:01:30.499Z,10.63
2018-03-29T20:03:57.507Z,7.60
2018-03-29T20:06:23.768Z,7.25
2018-03-29T20:08:50.787Z,8.20
2018-03-29T20:11:17.106Z,5.40
2018-03-29T20:13:43.388Z,5.75
2018-03-29T20:16:09.640Z,6.65
2018-03-29T20:18:35.944Z,6.07
2018-03-29T20:21:02.199Z,6.25
2018-03-29T20:23:28.467Z,5.90
2018-03-29T20:25:54.708Z,5.40
2018-03-29T20:28:20.951Z,6.28
2018-03-29T20:30:47.948Z,5.80
2018-03-29T20:33:14.183Z,7.93
2018-03-29T20:35:40.440Z,7.37
2018-03-29T20:38:06.680Z,6.07
2018-03-29T20:40:33.725Z,4.28
2018-03-29T20:42:59.928Z,6.90
2018-03-29T20:45:26.182Z,5.57
2018-03-29T20:47:52.439Z,8.65
2018-03-29T20:50:18.767Z,4.10
2018-03-29T20:52:45.731Z,5.15
2018-03-29T20:55:11.991Z,6.65
2018-03-29T20:57:38.250Z,4.68
2018-03-29T21:00:04.607Z,4.70
2018-03-29T21:02:31.579Z,9.02
2018-03-29T21:04:57.847Z,9.45
2018-03-29T21:07:24.096Z,5.35
2018-03-29T21:09:51.067Z,7.50
2018-03-29T21:12:17.327Z,5.18
2018-03-29T21:14:43.560Z,5.95
2018-03-29T21:17:09.815Z,4.97
2018-03-29T21:19:36.110Z,7.80
2018-03-29T21:22:03.067Z,4.97
2018-03-29T21:24:29.327Z,7.90
2018-03-29T21:26:55.630Z,5.37
2018-03-29T21:29:21.909Z,6.20
2018-03-29T21:31:48.170Z,6.40
2018-03-29T21:34:14.438Z,7.68
2018-03-29T21:36:40.744Z,5.90
2018-03-29T21:39:06.948Z,7.18
2018-03-29T21:41:33.174Z,5.85
2018-03-29T21:43:59.427Z,8.13
2018-03-29T21:46:25.692Z,5.60
2018-03-29T21:48:52.707Z,5.25
2018-03-29T21:51:18.975Z,8.60
2018-03-29T21:53:45.975Z,7.55
2018-03-29T21:56:12.203Z,6.80
2018-03-29T21:58:38.460Z,6.60
2018-03-29T22:01:04.737Z,9.63
2018-03-29T22:03:31.736Z,7.85
2018-03-29T22:05:57.972Z,7.30
2018-03-29T22:08:24.226Z,7.05
2018-03-29T22:10:51.198Z,8.98
2018-03-29T22:13:17.456Z,5.80
2018-03-29T22:15:43.683Z,6.25
2018-03-29T22:18:09.939Z,7.50
2018-03-29T22:20:36.211Z,8.75
2018-03-29T22:23:02.459Z,8.50
2018-03-29T22:25:28.742Z,6.37
2018-03-29T22:27:54.983Z,6.20
2018-03-29T22:30:21.251Z,6.28
2018-03-29T22:32:47.486Z,6.90
2018-03-29T22:35:13.743Z,5.97
2018-03-29T22:37:39.977Z,5.07
2018-03-29T22:40:06.987Z,9.07
2018-03-29T22:42:33.243Z,6.12
2018-03-29T22:45:00.309Z,7.85
2018-03-29T22:47:27.311Z,8.65
2018-03-29T22:49:53.560Z,5.95
2018-03-29T22:52:19.800Z,6.25
2018-03-29T22:54:46.046Z,7.87
2018-03-29T22:57:13.072Z,6.97
2018-03-29T22:59:39.362Z,7.85
2018-03-29T23:02:05.611Z,6.85
2018-03-29T23:04:31.997Z,6.75
2018-03-29T23:06:58.251Z,6.32
2018-03-29T23:09:24.528Z,7.78
2018-03-29T23:11:51.677Z,6.15
2018-03-29T23:14:17.945Z,6.82
2018-03-29T23:16:44.236Z,6.72
2018-03-29T23:19:10.483Z,6.40
2018-03-29T23:21:37.523Z,9.25
2018-03-29T23:24:03.829Z,7.30
2018-03-29T23:26:30.155Z,14.98
2018-03-29T23:28:56.483Z,7.00
2018-03-29T23:31:23.088Z,9.75
2018-03-29T23:33:49.406Z,8.90
2018-03-29T23:36:15.706Z,8.38
2018-03-29T23:38:42.752Z,7.05
2018-03-29T23:41:09.808Z,6.22
2018-03-29T23:43:36.117Z,6.30
2018-03-29T23:46:02.481Z,6.93
2018-03-29T23:48:28.810Z,6.00
2018-03-29T23:50:55.191Z,7.20
2018-03-29T23:53:21.497Z,7.32
2018-03-29T23:55:47.792Z,5.68
2018-03-29T23:58:15.885Z,6.50
